Terminal Aerodrome Forecast
Issued by NWS Twin Cities, MN

Home | Current Version | Previous Version | Graphics & Text | Print | Product List | Glossary Off
Versions: 1 2 3 4 5 6 7 8 9 10 11 12 13 14 15 16 17 18 19 20 21 22 23 24 25 26

000
FTUS43 KMPX 042336
TAFSTC
TAF
KSTC 042336Z 0500/0524 16012KT P6SM SCT035 OVC120
      TEMPO 0501/0504 6SM SHRA BKN035
     FM050600 15008KT P6SM SCT020 BKN120
      TEMPO 0508/0512 5SM TSRA BKN020CB
     FM051500 16011KT P6SM FEW035 SCT120=

USA.gov is the U.S. government's official web portal to all federal, state and local government web resources and services.